Portada
METAR-TAF:

METAR-TAF

Aeropuertos :

Aeropuerto Internacional de Yap

Yap, Micronesia

latitud: 09-29N, longitud: 138-05E, altitud: 28 m

Observación

El informe se hizo hace 55 minutos, a las 07:51 UTC
Viento 10 kt del este
Temperatura 29°C
Humedad 84%
Presión 1007 hPa
Visibilidad: 19.3 km
Escasas nubes a una altura de 1600 ft, Cumulonimbus.
Nubes dispersas a una altura de 13000 ft
Cielo nuboso a una altura de 30000 ft

METAR: PTYA 130751Z 09010KT 12SM FEW016CB SCT130 BKN300 29/26 A2974 RMK CB N SLP071 T02930255

Hora: 18:46 (08:46 UTC)

Pronóstico

El informe se hizo hace 3 horas y 16 minutos, a las 05:30 UTC
Pronóstico válido del 13 a las 06 UTC al 14 a las 06 UTC
Viento 8 kt del este
Visibilidad: 10 km
Nubes dispersas a una altura de 1500 ft
Nubes dispersas a una altura de 13000 ft
chaparrones en las proximidades

TAF: PTYA 130530Z 1306/1406 08008KT P6SM VCSH SCT015 SCT130

Observaciones y pronósticos meteorológicos de más de 4000 aeropuertos (mensajes METAR y TAF).

Los puntos amarillos y rojos representan las estaciones disponibles.

Ponga el ratón en el punto deseado para ver el nombre de la estación.

Haga clic para ver las observaciones y los pronósticos meteorológicos.

Para cambiar el mapa : haga clic en los botones verdes con una cruz de color negro para hacer un zoom, en el botón verde con un guión para alejar o en las flechas verdes para mapas adyacentes.


METAR-TAF: